sensor_id;sensor_type;location;lat;lon;timestamp;P1;durP1;ratioP1;P2;durP2;ratioP2
30462;SDS011;17256;43.618;25.336;2022-12-29T00:00:49;43.73;;;32.43;;
30462;SDS011;17256;43.618;25.336;2022-12-29T00:03:15;53.93;;;36.23;;
30462;SDS011;17256;43.618;25.336;2022-12-29T00:05:40;48.63;;;36.17;;
30462;SDS011;17256;43.618;25.336;2022-12-29T00:08:06;44.17;;;34.83;;
30462;SDS011;17256;43.618;25.336;2022-12-29T00:10:32;51.97;;;35.47;;
30462;SDS011;17256;43.618;25.336;2022-12-29T00:12:58;59.70;;;35.40;;
30462;SDS011;17256;43.618;25.336;2022-12-29T00:15:42;94.40;;;48.27;;
30462;SDS011;17256;43.618;25.336;2022-12-29T00:18:08;51.83;;;32.10;;
30462;SDS011;17256;43.618;25.336;2022-12-29T00:20:35;46.07;;;27.93;;
30462;SDS011;17256;43.618;25.336;2022-12-29T00:23:20;36.00;;;21.63;;
30462;SDS011;17256;43.618;25.336;2022-12-29T00:26:11;44.50;;;23.13;;
30462;SDS011;17256;43.618;25.336;2022-12-29T00:29:00;37.30;;;23.60;;
30462;SDS011;17256;43.618;25.336;2022-12-29T00:31:44;37.20;;;21.70;;
30462;SDS011;17256;43.618;25.336;2022-12-29T00:34:28;22.27;;;15.40;;
30462;SDS011;17256;43.618;25.336;2022-12-29T00:37:12;18.50;;;14.00;;
30462;SDS011;17256;43.618;25.336;2022-12-29T00:39:39;20.00;;;14.70;;
30462;SDS011;17256;43.618;25.336;2022-12-29T00:42:24;18.20;;;13.77;;
30462;SDS011;17256;43.618;25.336;2022-12-29T00:45:08;18.23;;;13.63;;
30462;SDS011;17256;43.618;25.336;2022-12-29T00:47:34;18.13;;;13.13;;
30462;SDS011;17256;43.618;25.336;2022-12-29T00:50:00;19.80;;;13.67;;
30462;SDS011;17256;43.618;25.336;2022-12-29T00:52:26;18.50;;;13.20;;
30462;SDS011;17256;43.618;25.336;2022-12-29T00:54:52;19.07;;;13.63;;
30462;SDS011;17256;43.618;25.336;2022-12-29T00:57:18;21.37;;;19.17;;
30462;SDS011;17256;43.618;25.336;2022-12-29T00:59:43;20.03;;;17.67;;
30462;SDS011;17256;43.618;25.336;2022-12-29T01:02:10;22.83;;;18.10;;
30462;SDS011;17256;43.618;25.336;2022-12-29T01:04:36;21.17;;;17.07;;
30462;SDS011;17256;43.618;25.336;2022-12-29T01:09:37;25.07;;;20.23;;
30462;SDS011;17256;43.618;25.336;2022-12-29T01:12:21;16.47;;;14.13;;
30462;SDS011;17256;43.618;25.336;2022-12-29T01:15:08;17.50;;;13.20;;
30462;SDS011;17256;43.618;25.336;2022-12-29T01:17:35;15.97;;;13.53;;
30462;SDS011;17256;43.618;25.336;2022-12-29T01:20:01;16.83;;;13.73;;
30462;SDS011;17256;43.618;25.336;2022-12-29T01:22:28;21.40;;;15.10;;
30462;SDS011;17256;43.618;25.336;2022-12-29T01:24:54;19.70;;;13.50;;
30462;SDS011;17256;43.618;25.336;2022-12-29T01:27:20;18.13;;;13.13;;
30462;SDS011;17256;43.618;25.336;2022-12-29T01:29:46;20.63;;;13.83;;
30462;SDS011;17256;43.618;25.336;2022-12-29T01:32:12;20.33;;;14.43;;
30462;SDS011;17256;43.618;25.336;2022-12-29T01:34:38;17.10;;;13.97;;
30462;SDS011;17256;43.618;25.336;2022-12-29T01:37:13;21.87;;;16.67;;
30462;SDS011;17256;43.618;25.336;2022-12-29T01:39:39;66.90;;;34.50;;
30462;SDS011;17256;43.618;25.336;2022-12-29T01:42:04;55.90;;;30.03;;
30462;SDS011;17256;43.618;25.336;2022-12-29T01:47:47;37.03;;;26.13;;
30462;SDS011;17256;43.618;25.336;2022-12-29T01:50:20;32.67;;;20.40;;
30462;SDS011;17256;43.618;25.336;2022-12-29T01:53:07;28.73;;;18.33;;
30462;SDS011;17256;43.618;25.336;2022-12-29T01:55:44;27.13;;;18.73;;
30462;SDS011;17256;43.618;25.336;2022-12-29T01:58:17;41.73;;;26.10;;
30462;SDS011;17256;43.618;25.336;2022-12-29T02:00:47;45.30;;;24.37;;
30462;SDS011;17256;43.618;25.336;2022-12-29T02:03:13;26.27;;;19.00;;
30462;SDS011;17256;43.618;25.336;2022-12-29T02:05:57;29.60;;;20.27;;
30462;SDS011;17256;43.618;25.336;2022-12-29T02:08:28;28.30;;;19.70;;
30462;SDS011;17256;43.618;25.336;2022-12-29T02:10:55;25.80;;;19.10;;
30462;SDS011;17256;43.618;25.336;2022-12-29T02:13:25;22.43;;;16.97;;
30462;SDS011;17256;43.618;25.336;2022-12-29T02:31:36;15.73;;;13.53;;
30462;SDS011;17256;43.618;25.336;2022-12-29T02:37:07;18.10;;;13.60;;
30462;SDS011;17256;43.618;25.336;2022-12-29T02:42:35;19.80;;;15.93;;
30462;SDS011;17256;43.618;25.336;2022-12-29T02:45:51;22.07;;;16.93;;
30462;SDS011;17256;43.618;25.336;2022-12-29T02:50:54;27.60;;;20.33;;
30462;SDS011;17256;43.618;25.336;2022-12-29T02:53:25;26.87;;;19.73;;
30462;SDS011;17256;43.618;25.336;2022-12-29T02:56:12;23.07;;;17.60;;
30462;SDS011;17256;43.618;25.336;2022-12-29T02:58:39;22.27;;;17.57;;
30462;SDS011;17256;43.618;25.336;2022-12-29T03:01:16;22.60;;;18.47;;
30462;SDS011;17256;43.618;25.336;2022-12-29T03:06:35;24.10;;;17.27;;
30462;SDS011;17256;43.618;25.336;2022-12-29T03:09:13;24.50;;;18.47;;
30462;SDS011;17256;43.618;25.336;2022-12-29T03:20:21;28.93;;;21.63;;
30462;SDS011;17256;43.618;25.336;2022-12-29T03:22:55;29.40;;;22.37;;
30462;SDS011;17256;43.618;25.336;2022-12-29T03:25:29;42.97;;;37.83;;
30462;SDS011;17256;43.618;25.336;2022-12-29T03:28:01;43.13;;;32.40;;
30462;SDS011;17256;43.618;25.336;2022-12-29T03:30:34;37.50;;;31.97;;
30462;SDS011;17256;43.618;25.336;2022-12-29T03:33:02;32.70;;;27.00;;
30462;SDS011;17256;43.618;25.336;2022-12-29T03:35:32;29.80;;;23.10;;
30462;SDS011;17256;43.618;25.336;2022-12-29T03:38:12;26.57;;;20.37;;
30462;SDS011;17256;43.618;25.336;2022-12-29T03:43:29;29.67;;;24.23;;
30462;SDS011;17256;43.618;25.336;2022-12-29T03:45:55;22.97;;;18.67;;
30462;SDS011;17256;43.618;25.336;2022-12-29T03:48:21;19.90;;;15.90;;
30462;SDS011;17256;43.618;25.336;2022-12-29T03:50:49;21.50;;;16.53;;
30462;SDS011;17256;43.618;25.336;2022-12-29T03:53:16;20.10;;;14.83;;
30462;SDS011;17256;43.618;25.336;2022-12-29T03:55:42;19.87;;;14.27;;
30462;SDS011;17256;43.618;25.336;2022-12-29T03:58:09;25.47;;;19.23;;
30462;SDS011;17256;43.618;25.336;2022-12-29T04:00:53;23.90;;;18.30;;
30462;SDS011;17256;43.618;25.336;2022-12-29T04:03:19;24.70;;;19.87;;
30462;SDS011;17256;43.618;25.336;2022-12-29T04:05:45;29.43;;;23.23;;
30462;SDS011;17256;43.618;25.336;2022-12-29T04:08:17;26.67;;;22.30;;
30462;SDS011;17256;43.618;25.336;2022-12-29T04:10:43;28.50;;;22.57;;
30462;SDS011;17256;43.618;25.336;2022-12-29T04:13:09;23.90;;;18.93;;
30462;SDS011;17256;43.618;25.336;2022-12-29T04:15:35;25.70;;;19.10;;
30462;SDS011;17256;43.618;25.336;2022-12-29T04:18:01;27.67;;;22.67;;
30462;SDS011;17256;43.618;25.336;2022-12-29T04:23:27;28.63;;;22.17;;
30462;SDS011;17256;43.618;25.336;2022-12-29T04:25:54;32.20;;;22.23;;
30462;SDS011;17256;43.618;25.336;2022-12-29T04:28:19;32.37;;;24.63;;
30462;SDS011;17256;43.618;25.336;2022-12-29T04:30:54;31.60;;;22.53;;
30462;SDS011;17256;43.618;25.336;2022-12-29T04:33:32;38.47;;;25.40;;
30462;SDS011;17256;43.618;25.336;2022-12-29T04:35:58;43.73;;;30.63;;
30462;SDS011;17256;43.618;25.336;2022-12-29T04:38:25;41.53;;;33.07;;
30462;SDS011;17256;43.618;25.336;2022-12-29T04:40:54;55.50;;;36.33;;
30462;SDS011;17256;43.618;25.336;2022-12-29T04:43:22;51.80;;;34.20;;
30462;SDS011;17256;43.618;25.336;2022-12-29T04:46:06;53.33;;;36.40;;
30462;SDS011;17256;43.618;25.336;2022-12-29T04:48:55;54.93;;;37.07;;
30462;SDS011;17256;43.618;25.336;2022-12-29T04:51:29;59.83;;;37.17;;
30462;SDS011;17256;43.618;25.336;2022-12-29T04:54:06;46.57;;;34.20;;
30462;SDS011;17256;43.618;25.336;2022-12-29T04:56:38;43.27;;;32.97;;
30462;SDS011;17256;43.618;25.336;2022-12-29T04:59:18;38.37;;;32.90;;
30462;SDS011;17256;43.618;25.336;2022-12-29T05:01:52;40.93;;;30.93;;
30462;SDS011;17256;43.618;25.336;2022-12-29T05:04:18;36.27;;;27.83;;
30462;SDS011;17256;43.618;25.336;2022-12-29T05:06:44;45.60;;;35.90;;
30462;SDS011;17256;43.618;25.336;2022-12-29T05:09:10;45.17;;;33.67;;
30462;SDS011;17256;43.618;25.336;2022-12-29T05:11:37;43.53;;;32.80;;
30462;SDS011;17256;43.618;25.336;2022-12-29T05:14:04;41.27;;;30.73;;
30462;SDS011;17256;43.618;25.336;2022-12-29T05:16:31;38.40;;;30.93;;
30462;SDS011;17256;43.618;25.336;2022-12-29T05:18:58;39.83;;;31.57;;
30462;SDS011;17256;43.618;25.336;2022-12-29T05:21:24;38.97;;;31.90;;
30462;SDS011;17256;43.618;25.336;2022-12-29T05:23:50;51.23;;;38.33;;
30462;SDS011;17256;43.618;25.336;2022-12-29T05:29:38;51.00;;;40.40;;
30462;SDS011;17256;43.618;25.336;2022-12-29T05:32:08;52.00;;;40.93;;
30462;SDS011;17256;43.618;25.336;2022-12-29T05:34:35;44.67;;;36.03;;
30462;SDS011;17256;43.618;25.336;2022-12-29T05:37:01;50.43;;;33.80;;
30462;SDS011;17256;43.618;25.336;2022-12-29T05:39:29;46.03;;;32.90;;
30462;SDS011;17256;43.618;25.336;2022-12-29T05:42:00;45.03;;;30.53;;
30462;SDS011;17256;43.618;25.336;2022-12-29T05:44:51;39.23;;;30.70;;
30462;SDS011;17256;43.618;25.336;2022-12-29T05:47:30;40.90;;;30.93;;
30462;SDS011;17256;43.618;25.336;2022-12-29T05:50:16;47.17;;;31.63;;
30462;SDS011;17256;43.618;25.336;2022-12-29T05:53:01;47.43;;;33.23;;
30462;SDS011;17256;43.618;25.336;2022-12-29T05:55:29;50.97;;;35.87;;
30462;SDS011;17256;43.618;25.336;2022-12-29T05:57:58;49.63;;;35.40;;
30462;SDS011;17256;43.618;25.336;2022-12-29T06:00:28;51.70;;;37.67;;
30462;SDS011;17256;43.618;25.336;2022-12-29T06:02:54;53.83;;;39.00;;
30462;SDS011;17256;43.618;25.336;2022-12-29T06:05:27;53.90;;;40.73;;
30462;SDS011;17256;43.618;25.336;2022-12-29T06:08:01;58.97;;;44.07;;
30462;SDS011;17256;43.618;25.336;2022-12-29T06:10:32;51.93;;;38.60;;
30462;SDS011;17256;43.618;25.336;2022-12-29T06:13:03;42.80;;;32.03;;
30462;SDS011;17256;43.618;25.336;2022-12-29T06:15:34;44.17;;;31.53;;
30462;SDS011;17256;43.618;25.336;2022-12-29T06:18:06;38.53;;;25.70;;
30462;SDS011;17256;43.618;25.336;2022-12-29T06:20:33;34.13;;;22.93;;
30462;SDS011;17256;43.618;25.336;2022-12-29T06:23:05;26.83;;;21.80;;
30462;SDS011;17256;43.618;25.336;2022-12-29T06:25:34;26.50;;;20.17;;
30462;SDS011;17256;43.618;25.336;2022-12-29T06:28:05;28.20;;;19.40;;
30462;SDS011;17256;43.618;25.336;2022-12-29T06:30:32;28.97;;;18.83;;
30462;SDS011;17256;43.618;25.336;2022-12-29T06:33:02;23.70;;;17.43;;
30462;SDS011;17256;43.618;25.336;2022-12-29T06:35:30;28.07;;;19.50;;
30462;SDS011;17256;43.618;25.336;2022-12-29T06:37:57;53.53;;;37.43;;
30462;SDS011;17256;43.618;25.336;2022-12-29T06:40:25;34.53;;;26.50;;
30462;SDS011;17256;43.618;25.336;2022-12-29T06:43:00;36.57;;;24.50;;
30462;SDS011;17256;43.618;25.336;2022-12-29T06:45:47;62.73;;;43.80;;
30462;SDS011;17256;43.618;25.336;2022-12-29T06:48:13;63.93;;;50.47;;
30462;SDS011;17256;43.618;25.336;2022-12-29T06:50:43;51.67;;;37.13;;
30462;SDS011;17256;43.618;25.336;2022-12-29T06:53:11;33.10;;;27.97;;
30462;SDS011;17256;43.618;25.336;2022-12-29T06:55:37;29.53;;;22.60;;
30462;SDS011;17256;43.618;25.336;2022-12-29T06:58:04;37.93;;;26.17;;
30462;SDS011;17256;43.618;25.336;2022-12-29T07:00:31;33.70;;;25.40;;
30462;SDS011;17256;43.618;25.336;2022-12-29T07:02:59;33.07;;;25.43;;
30462;SDS011;17256;43.618;25.336;2022-12-29T07:05:25;49.50;;;34.77;;
30462;SDS011;17256;43.618;25.336;2022-12-29T07:07:53;78.90;;;47.23;;
30462;SDS011;17256;43.618;25.336;2022-12-29T07:10:22;61.83;;;41.90;;
30462;SDS011;17256;43.618;25.336;2022-12-29T07:12:52;56.97;;;41.57;;
30462;SDS011;17256;43.618;25.336;2022-12-29T07:15:18;67.07;;;47.83;;
30462;SDS011;17256;43.618;25.336;2022-12-29T07:17:46;67.23;;;49.87;;
30462;SDS011;17256;43.618;25.336;2022-12-29T07:20:12;78.00;;;50.77;;
30462;SDS011;17256;43.618;25.336;2022-12-29T07:22:41;128.40;;;62.63;;
30462;SDS011;17256;43.618;25.336;2022-12-29T07:25:08;69.53;;;50.83;;
30462;SDS011;17256;43.618;25.336;2022-12-29T07:27:35;87.23;;;51.40;;
30462;SDS011;17256;43.618;25.336;2022-12-29T07:30:01;73.17;;;51.90;;
30462;SDS011;17256;43.618;25.336;2022-12-29T07:32:28;135.70;;;94.20;;
30462;SDS011;17256;43.618;25.336;2022-12-29T07:34:57;60.43;;;43.27;;
30462;SDS011;17256;43.618;25.336;2022-12-29T07:37:25;67.13;;;43.77;;
30462;SDS011;17256;43.618;25.336;2022-12-29T07:39:51;80.43;;;50.00;;
30462;SDS011;17256;43.618;25.336;2022-12-29T07:42:17;33.07;;;24.63;;
30462;SDS011;17256;43.618;25.336;2022-12-29T07:44:49;46.63;;;33.63;;
30462;SDS011;17256;43.618;25.336;2022-12-29T07:47:18;30.70;;;23.07;;
30462;SDS011;17256;43.618;25.336;2022-12-29T07:49:45;30.23;;;23.57;;
30462;SDS011;17256;43.618;25.336;2022-12-29T07:52:12;35.43;;;24.57;;
30462;SDS011;17256;43.618;25.336;2022-12-29T07:54:39;152.07;;;76.67;;
30462;SDS011;17256;43.618;25.336;2022-12-29T07:57:11;52.27;;;34.90;;
30462;SDS011;17256;43.618;25.336;2022-12-29T08:00:16;155.70;;;82.63;;
30462;SDS011;17256;43.618;25.336;2022-12-29T08:03:26;68.87;;;45.77;;
30462;SDS011;17256;43.618;25.336;2022-12-29T08:06:05;86.87;;;49.33;;
30462;SDS011;17256;43.618;25.336;2022-12-29T08:08:49;60.97;;;37.57;;
30462;SDS011;17256;43.618;25.336;2022-12-29T08:11:15;46.30;;;32.13;;
30462;SDS011;17256;43.618;25.336;2022-12-29T08:13:41;81.07;;;48.87;;
30462;SDS011;17256;43.618;25.336;2022-12-29T08:16:06;48.20;;;28.90;;
30462;SDS011;17256;43.618;25.336;2022-12-29T08:18:32;42.27;;;28.80;;
30462;SDS011;17256;43.618;25.336;2022-12-29T08:21:02;46.83;;;31.93;;
30462;SDS011;17256;43.618;25.336;2022-12-29T08:23:28;39.37;;;28.20;;
30462;SDS011;17256;43.618;25.336;2022-12-29T08:26:00;43.87;;;29.10;;
30462;SDS011;17256;43.618;25.336;2022-12-29T08:28:28;41.23;;;28.80;;
30462;SDS011;17256;43.618;25.336;2022-12-29T08:30:57;40.77;;;30.00;;
30462;SDS011;17256;43.618;25.336;2022-12-29T08:33:23;40.93;;;28.27;;
30462;SDS011;17256;43.618;25.336;2022-12-29T08:35:49;35.80;;;27.17;;
30462;SDS011;17256;43.618;25.336;2022-12-29T08:38:15;36.50;;;28.53;;
30462;SDS011;17256;43.618;25.336;2022-12-29T08:40:40;59.27;;;36.37;;
30462;SDS011;17256;43.618;25.336;2022-12-29T08:43:07;67.77;;;43.03;;
30462;SDS011;17256;43.618;25.336;2022-12-29T08:45:33;79.17;;;47.50;;
30462;SDS011;17256;43.618;25.336;2022-12-29T08:47:59;76.27;;;45.47;;
30462;SDS011;17256;43.618;25.336;2022-12-29T08:50:24;67.47;;;46.60;;
30462;SDS011;17256;43.618;25.336;2022-12-29T08:52:50;764.93;;;538.37;;
30462;SDS011;17256;43.618;25.336;2022-12-29T08:55:16;175.77;;;120.40;;
30462;SDS011;17256;43.618;25.336;2022-12-29T08:57:41;76.50;;;48.57;;
30462;SDS011;17256;43.618;25.336;2022-12-29T09:00:16;72.43;;;46.17;;
30462;SDS011;17256;43.618;25.336;2022-12-29T09:02:42;67.63;;;45.07;;
30462;SDS011;17256;43.618;25.336;2022-12-29T09:05:07;54.27;;;38.00;;
30462;SDS011;17256;43.618;25.336;2022-12-29T09:07:33;46.83;;;30.10;;
30462;SDS011;17256;43.618;25.336;2022-12-29T09:09:59;40.73;;;27.07;;
30462;SDS011;17256;43.618;25.336;2022-12-29T09:12:24;44.40;;;32.43;;
30462;SDS011;17256;43.618;25.336;2022-12-29T09:14:50;47.90;;;33.50;;
30462;SDS011;17256;43.618;25.336;2022-12-29T09:17:16;45.17;;;33.03;;
30462;SDS011;17256;43.618;25.336;2022-12-29T09:20:00;45.33;;;34.43;;
30462;SDS011;17256;43.618;25.336;2022-12-29T09:22:26;36.43;;;29.30;;
30462;SDS011;17256;43.618;25.336;2022-12-29T09:24:51;31.60;;;24.90;;
30462;SDS011;17256;43.618;25.336;2022-12-29T09:27:17;37.57;;;29.37;;
30462;SDS011;17256;43.618;25.336;2022-12-29T09:29:42;35.70;;;27.87;;
30462;SDS011;17256;43.618;25.336;2022-12-29T09:32:08;28.53;;;21.93;;
30462;SDS011;17256;43.618;25.336;2022-12-29T09:34:34;30.73;;;23.80;;
30462;SDS011;17256;43.618;25.336;2022-12-29T09:36:59;33.03;;;26.60;;
30462;SDS011;17256;43.618;25.336;2022-12-29T09:39:25;27.50;;;21.47;;
30462;SDS011;17256;43.618;25.336;2022-12-29T09:44:38;26.00;;;21.03;;
30462;SDS011;17256;43.618;25.336;2022-12-29T09:47:09;26.60;;;18.43;;
30462;SDS011;17256;43.618;25.336;2022-12-29T09:49:59;24.00;;;18.53;;
30462;SDS011;17256;43.618;25.336;2022-12-29T09:52:33;28.10;;;19.53;;
30462;SDS011;17256;43.618;25.336;2022-12-29T09:58:02;30.60;;;20.50;;
30462;SDS011;17256;43.618;25.336;2022-12-29T10:00:38;26.40;;;20.73;;
30462;SDS011;17256;43.618;25.336;2022-12-29T10:05:55;24.23;;;18.20;;
30462;SDS011;17256;43.618;25.336;2022-12-29T10:11:24;32.77;;;25.73;;
30462;SDS011;17256;43.618;25.336;2022-12-29T10:22:15;56.07;;;46.70;;
30462;SDS011;17256;43.618;25.336;2022-12-29T10:24:50;27.73;;;22.90;;
30462;SDS011;17256;43.618;25.336;2022-12-29T10:27:20;35.33;;;23.23;;
30462;SDS011;17256;43.618;25.336;2022-12-29T10:29:50;37.03;;;23.83;;
30462;SDS011;17256;43.618;25.336;2022-12-29T10:35:05;54.63;;;33.47;;
30462;SDS011;17256;43.618;25.336;2022-12-29T10:37:55;38.20;;;25.70;;
30462;SDS011;17256;43.618;25.336;2022-12-29T10:40:29;32.47;;;23.43;;
30462;SDS011;17256;43.618;25.336;2022-12-29T10:43:18;38.07;;;24.80;;
30462;SDS011;17256;43.618;25.336;2022-12-29T10:46:13;39.20;;;26.53;;
30462;SDS011;17256;43.618;25.336;2022-12-29T10:48:46;32.87;;;24.60;;
30462;SDS011;17256;43.618;25.336;2022-12-29T10:51:18;25.37;;;20.40;;
30462;SDS011;17256;43.618;25.336;2022-12-29T10:53:48;28.40;;;21.60;;
30462;SDS011;17256;43.618;25.336;2022-12-29T10:56:35;30.50;;;24.83;;
30462;SDS011;17256;43.618;25.336;2022-12-29T10:59:19;27.10;;;23.00;;
30462;SDS011;17256;43.618;25.336;2022-12-29T11:07:36;24.43;;;20.33;;
30462;SDS011;17256;43.618;25.336;2022-12-29T11:13:03;23.47;;;17.73;;
30462;SDS011;17256;43.618;25.336;2022-12-29T11:15:52;18.77;;;15.23;;
30462;SDS011;17256;43.618;25.336;2022-12-29T11:18:18;19.70;;;15.73;;
30462;SDS011;17256;43.618;25.336;2022-12-29T11:20:46;21.63;;;16.67;;
30462;SDS011;17256;43.618;25.336;2022-12-29T11:23:26;23.83;;;18.03;;
30462;SDS011;17256;43.618;25.336;2022-12-29T11:28:36;28.40;;;21.13;;
30462;SDS011;17256;43.618;25.336;2022-12-29T11:31:03;37.63;;;24.83;;
30462;SDS011;17256;43.618;25.336;2022-12-29T11:33:30;35.83;;;24.83;;
30462;SDS011;17256;43.618;25.336;2022-12-29T11:35:58;18.20;;;15.83;;
30462;SDS011;17256;43.618;25.336;2022-12-29T11:38:33;17.60;;;15.77;;
30462;SDS011;17256;43.618;25.336;2022-12-29T11:41:05;16.73;;;13.73;;
30462;SDS011;17256;43.618;25.336;2022-12-29T11:43:40;18.43;;;14.27;;
30462;SDS011;17256;43.618;25.336;2022-12-29T11:46:15;16.80;;;12.77;;
30462;SDS011;17256;43.618;25.336;2022-12-29T11:48:43;22.83;;;16.60;;
30462;SDS011;17256;43.618;25.336;2022-12-29T11:51:12;24.23;;;17.60;;
30462;SDS011;17256;43.618;25.336;2022-12-29T11:53:51;19.60;;;13.80;;
30462;SDS011;17256;43.618;25.336;2022-12-29T11:56:31;14.33;;;11.33;;
30462;SDS011;17256;43.618;25.336;2022-12-29T11:58:57;11.87;;;10.33;;
30462;SDS011;17256;43.618;25.336;2022-12-29T12:04:03;12.13;;;10.63;;
30462;SDS011;17256;43.618;25.336;2022-12-29T12:06:36;15.93;;;12.03;;
30462;SDS011;17256;43.618;25.336;2022-12-29T12:09:14;12.80;;;11.03;;
30462;SDS011;17256;43.618;25.336;2022-12-29T12:11:47;15.57;;;11.87;;
30462;SDS011;17256;43.618;25.336;2022-12-29T12:14:20;12.30;;;11.00;;
30462;SDS011;17256;43.618;25.336;2022-12-29T12:17:14;12.47;;;10.93;;
30462;SDS011;17256;43.618;25.336;2022-12-29T12:19:52;16.53;;;13.13;;
30462;SDS011;17256;43.618;25.336;2022-12-29T12:22:41;14.57;;;11.83;;
30462;SDS011;17256;43.618;25.336;2022-12-29T12:25:17;15.50;;;12.87;;
30462;SDS011;17256;43.618;25.336;2022-12-29T12:27:50;16.57;;;12.97;;
30462;SDS011;17256;43.618;25.336;2022-12-29T12:30:22;14.93;;;12.13;;
30462;SDS011;17256;43.618;25.336;2022-12-29T12:35:44;27.77;;;18.97;;
30462;SDS011;17256;43.618;25.336;2022-12-29T12:39:23;17.73;;;13.03;;
30462;SDS011;17256;43.618;25.336;2022-12-29T12:44:24;14.20;;;11.27;;
30462;SDS011;17256;43.618;25.336;2022-12-29T12:47:10;13.30;;;10.73;;
30462;SDS011;17256;43.618;25.336;2022-12-29T12:57:59;12.57;;;11.23;;
30462;SDS011;17256;43.618;25.336;2022-12-29T13:01:33;18.07;;;13.90;;
30462;SDS011;17256;43.618;25.336;2022-12-29T13:06:18;17.37;;;13.87;;
30462;SDS011;17256;43.618;25.336;2022-12-29T13:09:19;15.77;;;12.77;;
30462;SDS011;17256;43.618;25.336;2022-12-29T13:14:40;16.43;;;12.47;;
30462;SDS011;17256;43.618;25.336;2022-12-29T13:17:30;15.80;;;12.20;;
30462;SDS011;17256;43.618;25.336;2022-12-29T13:23:02;22.07;;;16.47;;
30462;SDS011;17256;43.618;25.336;2022-12-29T13:31:33;20.10;;;14.83;;
30462;SDS011;17256;43.618;25.336;2022-12-29T13:34:20;23.53;;;17.40;;
30462;SDS011;17256;43.618;25.336;2022-12-29T13:37:04;20.00;;;15.30;;
30462;SDS011;17256;43.618;25.336;2022-12-29T13:39:57;37.50;;;28.53;;
30462;SDS011;17256;43.618;25.336;2022-12-29T13:42:27;43.47;;;27.93;;
30462;SDS011;17256;43.618;25.336;2022-12-29T13:45:02;39.47;;;30.43;;
30462;SDS011;17256;43.618;25.336;2022-12-29T13:47:36;37.57;;;29.67;;
30462;SDS011;17256;43.618;25.336;2022-12-29T13:50:12;34.97;;;26.67;;
30462;SDS011;17256;43.618;25.336;2022-12-29T13:52:45;38.43;;;28.83;;
30462;SDS011;17256;43.618;25.336;2022-12-29T13:55:56;46.47;;;35.17;;
30462;SDS011;17256;43.618;25.336;2022-12-29T13:58:13;45.13;;;34.43;;
30462;SDS011;17256;43.618;25.336;2022-12-29T14:03:55;83.33;;;58.87;;
30462;SDS011;17256;43.618;25.336;2022-12-29T14:06:34;88.67;;;60.90;;
30462;SDS011;17256;43.618;25.336;2022-12-29T14:09:06;106.63;;;69.83;;
30462;SDS011;17256;43.618;25.336;2022-12-29T14:11:56;108.90;;;75.30;;
30462;SDS011;17256;43.618;25.336;2022-12-29T14:14:22;107.20;;;79.57;;
30462;SDS011;17256;43.618;25.336;2022-12-29T14:16:52;136.60;;;97.07;;
30462;SDS011;17256;43.618;25.336;2022-12-29T14:19:24;220.70;;;158.47;;
30462;SDS011;17256;43.618;25.336;2022-12-29T14:27:01;213.00;;;164.20;;
30462;SDS011;17256;43.618;25.336;2022-12-29T14:29:51;232.53;;;168.90;;
30462;SDS011;17256;43.618;25.336;2022-12-29T14:34:45;209.83;;;145.77;;
30462;SDS011;17256;43.618;25.336;2022-12-29T14:40:02;190.30;;;135.27;;
30462;SDS011;17256;43.618;25.336;2022-12-29T14:42:32;220.57;;;146.77;;
30462;SDS011;17256;43.618;25.336;2022-12-29T14:45:02;257.57;;;174.43;;
30462;SDS011;17256;43.618;25.336;2022-12-29T14:47:34;279.83;;;186.60;;
30462;SDS011;17256;43.618;25.336;2022-12-29T15:00:51;241.97;;;146.40;;
30462;SDS011;17256;43.618;25.336;2022-12-29T15:03:22;227.83;;;143.13;;
30462;SDS011;17256;43.618;25.336;2022-12-29T15:05:54;303.73;;;179.80;;
30462;SDS011;17256;43.618;25.336;2022-12-29T15:08:25;299.97;;;168.40;;
30462;SDS011;17256;43.618;25.336;2022-12-29T15:11:05;255.20;;;146.90;;
30462;SDS011;17256;43.618;25.336;2022-12-29T15:13:39;171.13;;;108.20;;
30462;SDS011;17256;43.618;25.336;2022-12-29T15:16:51;183.73;;;112.70;;
30462;SDS011;17256;43.618;25.336;2022-12-29T15:19:02;194.87;;;115.30;;
30462;SDS011;17256;43.618;25.336;2022-12-29T15:21:33;202.80;;;123.70;;
30462;SDS011;17256;43.618;25.336;2022-12-29T15:24:00;227.93;;;133.67;;
30462;SDS011;17256;43.618;25.336;2022-12-29T15:26:42;262.63;;;155.33;;
30462;SDS011;17256;43.618;25.336;2022-12-29T15:31:57;302.33;;;173.13;;
30462;SDS011;17256;43.618;25.336;2022-12-29T15:34:25;246.20;;;146.83;;
30462;SDS011;17256;43.618;25.336;2022-12-29T15:36:55;250.33;;;150.67;;
30462;SDS011;17256;43.618;25.336;2022-12-29T15:39:23;224.97;;;135.90;;
30462;SDS011;17256;43.618;25.336;2022-12-29T15:42:19;197.83;;;120.03;;
30462;SDS011;17256;43.618;25.336;2022-12-29T15:44:47;129.50;;;89.53;;
30462;SDS011;17256;43.618;25.336;2022-12-29T15:47:20;135.47;;;91.30;;
30462;SDS011;17256;43.618;25.336;2022-12-29T15:49:49;190.00;;;117.37;;
30462;SDS011;17256;43.618;25.336;2022-12-29T15:52:19;257.63;;;154.30;;
30462;SDS011;17256;43.618;25.336;2022-12-29T15:54:47;251.87;;;153.40;;
30462;SDS011;17256;43.618;25.336;2022-12-29T15:57:30;309.90;;;194.27;;
30462;SDS011;17256;43.618;25.336;2022-12-29T16:00:03;193.40;;;127.67;;
30462;SDS011;17256;43.618;25.336;2022-12-29T16:02:45;133.13;;;89.47;;
30462;SDS011;17256;43.618;25.336;2022-12-29T16:05:15;112.33;;;73.10;;
30462;SDS011;17256;43.618;25.336;2022-12-29T16:07:51;117.90;;;75.27;;
30462;SDS011;17256;43.618;25.336;2022-12-29T16:10:37;122.10;;;74.07;;
30462;SDS011;17256;43.618;25.336;2022-12-29T16:13:13;113.30;;;71.13;;
30462;SDS011;17256;43.618;25.336;2022-12-29T16:18:34;80.00;;;48.80;;
30462;SDS011;17256;43.618;25.336;2022-12-29T16:21:04;75.10;;;42.37;;
30462;SDS011;17256;43.618;25.336;2022-12-29T16:23:31;67.73;;;43.20;;
30462;SDS011;17256;43.618;25.336;2022-12-29T16:26:01;110.10;;;62.73;;
30462;SDS011;17256;43.618;25.336;2022-12-29T16:28:33;161.33;;;83.53;;
30462;SDS011;17256;43.618;25.336;2022-12-29T16:34:09;289.97;;;129.43;;
30462;SDS011;17256;43.618;25.336;2022-12-29T16:36:59;213.80;;;114.13;;
30462;SDS011;17256;43.618;25.336;2022-12-29T16:41:56;210.27;;;100.40;;
30462;SDS011;17256;43.618;25.336;2022-12-29T16:44:26;187.27;;;92.53;;
30462;SDS011;17256;43.618;25.336;2022-12-29T16:49:24;435.67;;;210.03;;
30462;SDS011;17256;43.618;25.336;2022-12-29T16:51:50;330.63;;;165.27;;
30462;SDS011;17256;43.618;25.336;2022-12-29T16:54:32;339.30;;;158.93;;
30462;SDS011;17256;43.618;25.336;2022-12-29T16:57:01;238.47;;;125.60;;
30462;SDS011;17256;43.618;25.336;2022-12-29T16:59:42;213.00;;;120.23;;
30462;SDS011;17256;43.618;25.336;2022-12-29T17:02:13;175.00;;;102.23;;
30462;SDS011;17256;43.618;25.336;2022-12-29T17:04:40;191.13;;;102.07;;
30462;SDS011;17256;43.618;25.336;2022-12-29T17:07:16;179.83;;;101.27;;
30462;SDS011;17256;43.618;25.336;2022-12-29T17:09:43;239.90;;;125.83;;